CheckWX is a tool to help pilots better visualize weather data.  It is not intended as a substitute for an official pre-flight weather briefing.

07:50:28 UTC

FKYS METAR
Yaoundé Nsimalen International Airport
Yaoundé, Cameroon
Current

50 mins ago

FKYS 120700Z 22003KT 190V250 6000 SCT006 FEW016CB 22/21 Q1017 NOSIG
Observed
Dec-12 @ 07:00 UTC
Wind
  • 220° at 3 KTS
Visibility
6,000 meters
Flight Rules
MVFR
Cloud Levels
  • Scattered at 600' AGL
  • Few at 1,600' AGL
Temperature
22°C / 72°F
Dewpoint
21°C / 70°F
Humidity
94%
Altimeter
30.03" Hg
Pressure
1016.92 hPa
Previous

2 hours ago

FKYS 120600Z 00000KT 6000 BKN006 22/21 Q1017 NOSIG
Observed
Dec-12 @ 06:00 UTC
Visibility
6,000 meters
Flight Rules
IFR
Cloud Levels
  • Broken at 600' AGL
Temperature
22°C / 72°F
Dewpoint
21°C / 70°F
Humidity
94%
Altimeter
30.03" Hg
Pressure
1016.92 hPa
Previous

5 hours ago

FKYS 120300Z 27003KT 6000 BKN006 22/19 Q1015 BECMG 4000 BR
Observed
Dec-12 @ 03:00 UTC
Wind
  • 270° at 3 KTS
Visibility
6,000 meters
Flight Rules
IFR
Cloud Levels
  • Broken at 600' AGL
Temperature
22°C / 72°F
Dewpoint
19°C / 66°F
Humidity
83%
Altimeter
29.97" Hg
Pressure
1014.92 hPa